sensor_id;sensor_type;location;lat;lon;timestamp;pressure;altitude;pressure_sealevel;temperature;humidity
2401;BME280;1211;43.200;27.914;2023-04-07T00:01:49;101016.47;;;11.28;nan
2401;BME280;1211;43.200;27.914;2023-04-07T00:04:16;101018.56;;;11.23;nan
2401;BME280;1211;43.200;27.914;2023-04-07T00:06:43;101001.84;;;11.02;nan
2401;BME280;1211;43.200;27.914;2023-04-07T00:09:11;101005.91;;;11.13;nan
2401;BME280;1211;43.200;27.914;2023-04-07T00:11:38;101003.66;;;11.15;nan
2401;BME280;1211;43.200;27.914;2023-04-07T00:14:04;100998.63;;;11.34;nan
2401;BME280;1211;43.200;27.914;2023-04-07T00:16:31;101004.94;;;11.26;nan
2401;BME280;1211;43.200;27.914;2023-04-07T00:18:58;100997.47;;;11.27;nan
2401;BME280;1211;43.200;27.914;2023-04-07T00:21:24;101006.22;;;11.20;nan
2401;BME280;1211;43.200;27.914;2023-04-07T00:23:51;100999.41;;;11.26;nan
2401;BME280;1211;43.200;27.914;2023-04-07T00:26:20;101005.22;;;11.42;nan
2401;BME280;1211;43.200;27.914;2023-04-07T00:28:46;100999.69;;;11.59;nan
2401;BME280;1211;43.200;27.914;2023-04-07T00:31:13;101003.44;;;11.54;nan
2401;BME280;1211;43.200;27.914;2023-04-07T00:33:39;101005.22;;;11.59;nan
2401;BME280;1211;43.200;27.914;2023-04-07T00:36:06;101002.16;;;11.35;nan
2401;BME280;1211;43.200;27.914;2023-04-07T00:38:33;101001.38;;;11.17;nan
2401;BME280;1211;43.200;27.914;2023-04-07T00:41:00;100996.81;;;11.38;nan
2401;BME280;1211;43.200;27.914;2023-04-07T00:43:28;101004.75;;;11.31;nan
2401;BME280;1211;43.200;27.914;2023-04-07T00:45:55;101003.63;;;11.24;nan
2401;BME280;1211;43.200;27.914;2023-04-07T00:48:21;101012.72;;;11.07;nan
2401;BME280;1211;43.200;27.914;2023-04-07T00:50:48;101015.47;;;11.07;nan
2401;BME280;1211;43.200;27.914;2023-04-07T00:53:15;101014.03;;;11.27;nan
2401;BME280;1211;43.200;27.914;2023-04-07T00:55:42;101014.63;;;11.41;nan
2401;BME280;1211;43.200;27.914;2023-04-07T00:58:08;101017.25;;;11.46;nan
2401;BME280;1211;43.200;27.914;2023-04-07T01:00:40;101020.97;;;11.24;nan
2401;BME280;1211;43.200;27.914;2023-04-07T01:03:08;101016.13;;;11.30;nan
2401;BME280;1211;43.200;27.914;2023-04-07T01:05:37;101016.78;;;11.27;nan
2401;BME280;1211;43.200;27.914;2023-04-07T01:08:07;101020.84;;;11.21;nan
2401;BME280;1211;43.200;27.914;2023-04-07T01:10:36;101007.53;;;10.88;nan
2401;BME280;1211;43.200;27.914;2023-04-07T01:13:04;101004.13;;;11.00;nan
2401;BME280;1211;43.200;27.914;2023-04-07T01:15:31;101010.28;;;10.97;nan
2401;BME280;1211;43.200;27.914;2023-04-07T01:18:03;101022.63;;;10.99;nan
2401;BME280;1211;43.200;27.914;2023-04-07T01:20:32;101016.28;;;11.07;nan
2401;BME280;1211;43.200;27.914;2023-04-07T01:23:01;101009.94;;;11.24;nan
2401;BME280;1211;43.200;27.914;2023-04-07T01:25:46;101008.19;;;11.28;nan
2401;BME280;1211;43.200;27.914;2023-04-07T01:28:27;101012.38;;;11.26;nan
2401;BME280;1211;43.200;27.914;2023-04-07T01:31:00;101007.03;;;11.29;nan
2401;BME280;1211;43.200;27.914;2023-04-07T01:33:27;101010.94;;;11.11;nan
2401;BME280;1211;43.200;27.914;2023-04-07T01:35:57;101014.16;;;11.30;nan
2401;BME280;1211;43.200;27.914;2023-04-07T01:38:25;101015.16;;;11.34;nan
2401;BME280;1211;43.200;27.914;2023-04-07T01:40:52;101014.47;;;11.54;nan
2401;BME280;1211;43.200;27.914;2023-04-07T01:43:19;101014.47;;;11.54;nan
2401;BME280;1211;43.200;27.914;2023-04-07T01:45:46;101020.81;;;11.38;nan
2401;BME280;1211;43.200;27.914;2023-04-07T01:48:15;101009.66;;;11.34;nan
2401;BME280;1211;43.200;27.914;2023-04-07T01:50:42;101013.38;;;11.04;nan
2401;BME280;1211;43.200;27.914;2023-04-07T01:53:09;101006.38;;;11.32;nan
2401;BME280;1211;43.200;27.914;2023-04-07T01:55:36;101011.91;;;11.32;nan
2401;BME280;1211;43.200;27.914;2023-04-07T01:58:03;101010.94;;;11.45;nan
2401;BME280;1211;43.200;27.914;2023-04-07T02:00:51;101015.78;;;11.48;83.38
2401;BME280;1211;43.200;27.914;2023-04-07T02:03:19;101008.50;;;11.44;84.03
2401;BME280;1211;43.200;27.914;2023-04-07T02:05:47;101011.09;;;11.23;86.10
2401;BME280;1211;43.200;27.914;2023-04-07T02:08:15;101008.31;;;11.40;87.16
2401;BME280;1211;43.200;27.914;2023-04-07T02:10:42;101017.56;;;11.36;85.30
2401;BME280;1211;43.200;27.914;2023-04-07T02:13:12;101017.41;;;11.49;86.96
2401;BME280;1211;43.200;27.914;2023-04-07T02:15:40;101014.50;;;11.46;86.07
2401;BME280;1211;43.200;27.914;2023-04-07T02:18:10;101014.50;;;11.37;88.53
2401;BME280;1211;43.200;27.914;2023-04-07T02:20:38;101013.34;;;11.30;88.36
2401;BME280;1211;43.200;27.914;2023-04-07T02:23:06;101020.34;;;11.10;87.59
2401;BME280;1211;43.200;27.914;2023-04-07T02:25:33;101026.50;;;11.24;88.30
2401;BME280;1211;43.200;27.914;2023-04-07T02:28:02;101020.69;;;11.34;88.12
2401;BME280;1211;43.200;27.914;2023-04-07T02:30:30;101022.28;;;11.27;89.22
2401;BME280;1211;43.200;27.914;2023-04-07T02:32:57;101024.22;;;11.26;89.88
2401;BME280;1211;43.200;27.914;2023-04-07T02:35:25;101034.47;;;11.34;89.88
2401;BME280;1211;43.200;27.914;2023-04-07T02:37:52;101027.16;;;11.38;92.22
2401;BME280;1211;43.200;27.914;2023-04-07T02:40:19;101031.53;;;11.31;94.06
2401;BME280;1211;43.200;27.914;2023-04-07T02:42:45;101033.47;;;11.39;95.69
2401;BME280;1211;43.200;27.914;2023-04-07T02:45:12;101042.56;;;11.22;100.00
2401;BME280;1211;43.200;27.914;2023-04-07T02:47:39;101036.53;;;11.11;100.00
2401;BME280;1211;43.200;27.914;2023-04-07T02:50:06;101037.88;;;11.23;100.00
2401;BME280;1211;43.200;27.914;2023-04-07T02:52:34;101033.31;;;11.44;100.00
2401;BME280;1211;43.200;27.914;2023-04-07T02:55:01;101034.75;;;11.50;100.00
2401;BME280;1211;43.200;27.914;2023-04-07T02:57:27;101040.09;;;11.46;100.00
2401;BME280;1211;43.200;27.914;2023-04-07T02:59:54;101039.63;;;11.53;100.00
2401;BME280;1211;43.200;27.914;2023-04-07T03:02:22;101040.28;;;11.41;100.00
2401;BME280;1211;43.200;27.914;2023-04-07T03:04:49;101038.66;;;11.32;100.00
2401;BME280;1211;43.200;27.914;2023-04-07T03:07:16;101035.75;;;11.28;100.00
2401;BME280;1211;43.200;27.914;2023-04-07T03:09:44;101051.97;;;11.38;100.00
2401;BME280;1211;43.200;27.914;2023-04-07T03:12:10;101044.34;;;11.44;100.00
2401;BME280;1211;43.200;27.914;2023-04-07T03:14:37;101042.72;;;11.34;100.00
2401;BME280;1211;43.200;27.914;2023-04-07T03:17:04;101051.16;;;11.38;100.00
2401;BME280;1211;43.200;27.914;2023-04-07T03:19:30;101050.00;;;11.30;99.86
2401;BME280;1211;43.200;27.914;2023-04-07T03:21:57;101050.69;;;11.27;97.93
2401;BME280;1211;43.200;27.914;2023-04-07T03:24:24;101051.00;;;11.26;97.24
2401;BME280;1211;43.200;27.914;2023-04-07T03:26:52;101053.09;;;11.37;95.56
2401;BME280;1211;43.200;27.914;2023-04-07T03:29:19;101058.28;;;11.30;91.65
2401;BME280;1211;43.200;27.914;2023-04-07T03:31:46;101068.97;;;11.23;88.54
2401;BME280;1211;43.200;27.914;2023-04-07T03:34:12;101069.31;;;11.30;88.08
2401;BME280;1211;43.200;27.914;2023-04-07T03:36:39;101065.25;;;11.36;85.56
2401;BME280;1211;43.200;27.914;2023-04-07T03:39:06;101081.78;;;11.19;83.22
2401;BME280;1211;43.200;27.914;2023-04-07T03:41:32;101083.75;;;11.10;83.70
2401;BME280;1211;43.200;27.914;2023-04-07T03:44:01;101073.50;;;11.02;81.96
2401;BME280;1211;43.200;27.914;2023-04-07T03:46:27;101076.28;;;11.10;83.17
2401;BME280;1211;43.200;27.914;2023-04-07T03:48:54;101080.50;;;11.17;81.82
2401;BME280;1211;43.200;27.914;2023-04-07T03:51:21;101082.44;;;11.42;81.56
2401;BME280;1211;43.200;27.914;2023-04-07T03:53:47;101090.41;;;11.26;78.26
2401;BME280;1211;43.200;27.914;2023-04-07T03:56:15;101091.88;;;11.32;76.74
2401;BME280;1211;43.200;27.914;2023-04-07T03:58:42;101089.44;;;11.56;75.16
2401;BME280;1211;43.200;27.914;2023-04-07T04:01:10;101095.59;;;11.36;74.23
2401;BME280;1211;43.200;27.914;2023-04-07T04:03:37;101099.47;;;11.70;73.38
2401;BME280;1211;43.200;27.914;2023-04-07T04:06:03;101093.47;;;11.59;73.58
2401;BME280;1211;43.200;27.914;2023-04-07T04:08:30;101101.94;;;11.54;72.21
2401;BME280;1211;43.200;27.914;2023-04-07T04:10:57;101106.28;;;11.29;71.65
2401;BME280;1211;43.200;27.914;2023-04-07T04:13:23;101104.81;;;11.23;74.41
2401;BME280;1211;43.200;27.914;2023-04-07T04:15:50;101107.44;;;11.37;74.77
2401;BME280;1211;43.200;27.914;2023-04-07T04:18:18;101110.22;;;11.63;74.05
2401;BME280;1211;43.200;27.914;2023-04-07T04:20:45;101123.50;;;11.35;71.72
2401;BME280;1211;43.200;27.914;2023-04-07T04:23:12;101123.50;;;11.35;72.63
2401;BME280;1211;43.200;27.914;2023-04-07T04:25:38;101120.75;;;11.69;72.16
2401;BME280;1211;43.200;27.914;2023-04-07T04:28:05;101118.81;;;11.61;71.43
2401;BME280;1211;43.200;27.914;2023-04-07T04:30:32;101123.03;;;11.33;70.32
2401;BME280;1211;43.200;27.914;2023-04-07T04:32:59;101133.88;;;11.64;70.64
2401;BME280;1211;43.200;27.914;2023-04-07T04:35:27;101128.56;;;11.76;69.42
2401;BME280;1211;43.200;27.914;2023-04-07T04:37:53;101134.06;;;11.67;69.31
2401;BME280;1211;43.200;27.914;2023-04-07T04:40:20;101130.84;;;11.74;67.90
2401;BME280;1211;43.200;27.914;2023-04-07T04:42:47;101128.69;;;11.71;66.71
2401;BME280;1211;43.200;27.914;2023-04-07T04:45:14;101125.47;;;11.69;65.80
2401;BME280;1211;43.200;27.914;2023-04-07T04:47:40;101132.59;;;11.87;65.94
2401;BME280;1211;43.200;27.914;2023-04-07T04:50:08;101136.97;;;11.71;64.20
2401;BME280;1211;43.200;27.914;2023-04-07T04:52:36;101133.25;;;11.67;64.58
2401;BME280;1211;43.200;27.914;2023-04-07T04:55:05;101131.13;;;11.72;64.86
2401;BME280;1211;43.200;27.914;2023-04-07T04:57:31;101138.78;;;11.84;63.55
2401;BME280;1211;43.200;27.914;2023-04-07T05:00:00;101139.13;;;11.91;64.17
2401;BME280;1211;43.200;27.914;2023-04-07T05:02:27;101143.00;;;12.07;63.43
2401;BME280;1211;43.200;27.914;2023-04-07T05:04:53;101147.69;;;12.07;63.51
2401;BME280;1211;43.200;27.914;2023-04-07T05:07:20;101146.84;;;12.23;63.55
2401;BME280;1211;43.200;27.914;2023-04-07T05:09:48;101153.03;;;12.20;62.79
2401;BME280;1211;43.200;27.914;2023-04-07T05:12:15;101157.41;;;12.30;63.04
2401;BME280;1211;43.200;27.914;2023-04-07T05:14:42;101153.50;;;12.22;63.23
2401;BME280;1211;43.200;27.914;2023-04-07T05:17:08;101142.50;;;12.05;61.82
2401;BME280;1211;43.200;27.914;2023-04-07T05:19:35;101145.03;;;12.36;62.33
2401;BME280;1211;43.200;27.914;2023-04-07T05:22:02;101155.53;;;12.51;61.83
2401;BME280;1211;43.200;27.914;2023-04-07T05:24:28;101157.88;;;12.78;60.85
2401;BME280;1211;43.200;27.914;2023-04-07T05:26:56;101157.00;;;12.95;60.17
2401;BME280;1211;43.200;27.914;2023-04-07T05:29:23;101160.50;;;13.13;59.10
2401;BME280;1211;43.200;27.914;2023-04-07T05:31:50;101162.97;;;13.06;58.41
2401;BME280;1211;43.200;27.914;2023-04-07T05:34:17;101174.34;;;12.66;57.75
2401;BME280;1211;43.200;27.914;2023-04-07T05:36:43;101167.00;;;13.08;56.75
2401;BME280;1211;43.200;27.914;2023-04-07T05:39:10;101167.88;;;13.00;57.02
2401;BME280;1211;43.200;27.914;2023-04-07T05:41:37;101170.72;;;12.83;57.60
2401;BME280;1211;43.200;27.914;2023-04-07T05:44:05;101176.47;;;12.99;58.09
2401;BME280;1211;43.200;27.914;2023-04-07T05:46:32;101163.44;;;13.37;57.18
2401;BME280;1211;43.200;27.914;2023-04-07T05:48:58;101170.91;;;13.07;57.14
2401;BME280;1211;43.200;27.914;2023-04-07T05:51:25;101162.13;;;13.64;57.18
2401;BME280;1211;43.200;27.914;2023-04-07T05:53:52;101168.88;;;13.75;56.55
2401;BME280;1211;43.200;27.914;2023-04-07T05:56:18;101172.34;;;13.84;56.76
2401;BME280;1211;43.200;27.914;2023-04-07T05:58:45;101172.28;;;13.72;56.80
2401;BME280;1211;43.200;27.914;2023-04-07T06:01:13;101175.06;;;13.93;56.57
2401;BME280;1211;43.200;27.914;2023-04-07T06:03:40;101176.53;;;13.90;56.33
2401;BME280;1211;43.200;27.914;2023-04-07T06:06:07;101177.56;;;13.86;56.78
2401;BME280;1211;43.200;27.914;2023-04-07T06:08:33;101181.44;;;14.06;56.79
2401;BME280;1211;43.200;27.914;2023-04-07T06:11:00;101180.94;;;14.24;58.10
2401;BME280;1211;43.200;27.914;2023-04-07T06:13:27;101186.03;;;14.22;58.01
2401;BME280;1211;43.200;27.914;2023-04-07T06:15:53;101194.91;;;14.16;57.85
2401;BME280;1211;43.200;27.914;2023-04-07T06:18:23;101190.22;;;14.61;58.33
2401;BME280;1211;43.200;27.914;2023-04-07T06:20:50;101189.75;;;14.59;57.72
2401;BME280;1211;43.200;27.914;2023-04-07T06:23:17;101198.56;;;14.86;57.32
2401;BME280;1211;43.200;27.914;2023-04-07T06:25:43;101202.63;;;15.00;57.41
2401;BME280;1211;43.200;27.914;2023-04-07T06:28:10;101201.00;;;15.23;55.64
2401;BME280;1211;43.200;27.914;2023-04-07T06:30:37;101194.97;;;14.73;55.25
2401;BME280;1211;43.200;27.914;2023-04-07T06:33:05;101197.63;;;15.66;55.81
2401;BME280;1211;43.200;27.914;2023-04-07T06:35:33;101206.88;;;16.38;53.45
2401;BME280;1211;43.200;27.914;2023-04-07T06:37:59;101198.06;;;16.64;51.92
2401;BME280;1211;43.200;27.914;2023-04-07T06:40:26;101201.75;;;17.15;51.30
2401;BME280;1211;43.200;27.914;2023-04-07T06:42:53;101203.25;;;15.82;50.75
2401;BME280;1211;43.200;27.914;2023-04-07T06:45:20;101211.53;;;16.78;50.70
2401;BME280;1211;43.200;27.914;2023-04-07T06:47:47;101210.59;;;16.30;48.35
2401;BME280;1211;43.200;27.914;2023-04-07T06:50:14;101207.13;;;16.61;48.65
2401;BME280;1211;43.200;27.914;2023-04-07T06:52:46;101210.91;;;16.13;49.07
2401;BME280;1211;43.200;27.914;2023-04-07T06:55:13;101211.06;;;16.76;48.76
2401;BME280;1211;43.200;27.914;2023-04-07T06:57:39;101209.66;;;16.98;47.42
2401;BME280;1211;43.200;27.914;2023-04-07T07:00:06;101202.63;;;16.88;47.44
2401;BME280;1211;43.200;27.914;2023-04-07T07:02:34;101215.22;;;17.13;47.73
2401;BME280;1211;43.200;27.914;2023-04-07T07:05:01;101214.16;;;17.53;46.58
2401;BME280;1211;43.200;27.914;2023-04-07T07:07:28;101219.97;;;17.13;46.07
2401;BME280;1211;43.200;27.914;2023-04-07T07:09:56;101218.69;;;18.31;45.47
2401;BME280;1211;43.200;27.914;2023-04-07T07:12:23;101221.53;;;18.53;43.01
2401;BME280;1211;43.200;27.914;2023-04-07T07:14:50;101235.69;;;19.55;42.06
2401;BME280;1211;43.200;27.914;2023-04-07T07:17:17;101234.38;;;20.05;41.95
2401;BME280;1211;43.200;27.914;2023-04-07T07:19:43;101230.94;;;18.87;42.86
2401;BME280;1211;43.200;27.914;2023-04-07T07:22:10;101236.16;;;19.61;41.04
2401;BME280;1211;43.200;27.914;2023-04-07T07:24:37;101231.69;;;19.83;39.17
2401;BME280;1211;43.200;27.914;2023-04-07T07:27:05;101243.03;;;20.93;37.89
2401;BME280;1211;43.200;27.914;2023-04-07T07:29:32;101234.44;;;20.76;36.03
2401;BME280;1211;43.200;27.914;2023-04-07T07:31:58;101234.16;;;20.84;34.21
2401;BME280;1211;43.200;27.914;2023-04-07T07:34:25;101239.38;;;19.14;35.42
2401;BME280;1211;43.200;27.914;2023-04-07T07:36:52;101245.09;;;20.00;34.55
2401;BME280;1211;43.200;27.914;2023-04-07T07:39:18;101242.03;;;19.79;35.30
2401;BME280;1211;43.200;27.914;2023-04-07T07:41:45;101249.53;;;19.48;36.07
2401;BME280;1211;43.200;27.914;2023-04-07T07:44:13;101252.88;;;18.47;35.83
2401;BME280;1211;43.200;27.914;2023-04-07T07:46:40;101246.19;;;18.51;35.95
2401;BME280;1211;43.200;27.914;2023-04-07T07:49:07;101254.00;;;18.84;36.48
2401;BME280;1211;43.200;27.914;2023-04-07T07:51:34;101256.13;;;19.14;36.09
2401;BME280;1211;43.200;27.914;2023-04-07T07:54:00;101257.13;;;19.25;35.53
2401;BME280;1211;43.200;27.914;2023-04-07T07:56:27;101260.41;;;19.08;35.64
2401;BME280;1211;43.200;27.914;2023-04-07T07:58:54;101257.78;;;19.41;35.46
2401;BME280;1211;43.200;27.914;2023-04-07T08:01:22;101256.28;;;20.00;35.05
2401;BME280;1211;43.200;27.914;2023-04-07T08:03:48;101260.66;;;19.22;35.19
2401;BME280;1211;43.200;27.914;2023-04-07T08:06:15;101262.13;;;19.39;36.11
2401;BME280;1211;43.200;27.914;2023-04-07T08:08:42;101252.97;;;19.91;34.99
2401;BME280;1211;43.200;27.914;2023-04-07T08:11:09;101256.31;;;19.73;34.63
2401;BME280;1211;43.200;27.914;2023-04-07T08:13:36;101262.75;;;20.04;34.19
2401;BME280;1211;43.200;27.914;2023-04-07T08:16:02;101252.81;;;20.10;34.46
2401;BME280;1211;43.200;27.914;2023-04-07T08:18:31;101258.53;;;20.84;33.71
2401;BME280;1211;43.200;27.914;2023-04-07T08:20:57;101252.50;;;20.45;33.10
2401;BME280;1211;43.200;27.914;2023-04-07T08:23:24;101251.06;;;20.28;33.46
2401;BME280;1211;43.200;27.914;2023-04-07T08:25:51;101262.47;;;19.56;34.36
2401;BME280;1211;43.200;27.914;2023-04-07T08:28:17;101265.84;;;19.99;34.16
2401;BME280;1211;43.200;27.914;2023-04-07T08:30:45;101257.56;;;20.06;34.08
2401;BME280;1211;43.200;27.914;2023-04-07T08:33:11;101256.56;;;20.51;33.17
2401;BME280;1211;43.200;27.914;2023-04-07T08:35:40;101264.66;;;20.26;33.91
2401;BME280;1211;43.200;27.914;2023-04-07T08:38:06;101265.66;;;19.35;33.50
2401;BME280;1211;43.200;27.914;2023-04-07T08:40:33;101253.38;;;18.72;34.75
2401;BME280;1211;43.200;27.914;2023-04-07T08:43:01;101259.09;;;19.47;35.25
2401;BME280;1211;43.200;27.914;2023-04-07T08:45:32;101261.53;;;18.61;34.85
2401;BME280;1211;43.200;27.914;2023-04-07T08:47:59;101264.22;;;17.65;37.62
2401;BME280;1211;43.200;27.914;2023-04-07T08:50:30;101267.94;;;19.04;36.28
2401;BME280;1211;43.200;27.914;2023-04-07T08:52:59;101282.34;;;19.51;34.83
2401;BME280;1211;43.200;27.914;2023-04-07T08:55:28;101274.84;;;19.36;35.22
2401;BME280;1211;43.200;27.914;2023-04-07T08:57:55;101279.41;;;19.44;35.45
2401;BME280;1211;43.200;27.914;2023-04-07T09:00:23;101278.81;;;19.35;34.26
2401;BME280;1211;43.200;27.914;2023-04-07T09:02:49;101282.34;;;18.64;35.36
2401;BME280;1211;43.200;27.914;2023-04-07T09:05:16;101290.81;;;17.78;36.75
2401;BME280;1211;43.200;27.914;2023-04-07T09:07:43;101294.22;;;18.41;36.97
2401;BME280;1211;43.200;27.914;2023-04-07T09:10:11;101284.31;;;19.05;35.88
2401;BME280;1211;43.200;27.914;2023-04-07T09:12:38;101285.00;;;18.22;35.65
2401;BME280;1211;43.200;27.914;2023-04-07T09:15:05;101296.88;;;18.96;35.95
2401;BME280;1211;43.200;27.914;2023-04-07T09:17:32;101291.06;;;19.27;35.80
2401;BME280;1211;43.200;27.914;2023-04-07T09:19:59;101294.91;;;19.91;35.35
2401;BME280;1211;43.200;27.914;2023-04-07T09:22:36;101290.88;;;19.62;35.86
2401;BME280;1211;43.200;27.914;2023-04-07T09:25:12;101290.00;;;19.12;35.98
2401;BME280;1211;43.200;27.914;2023-04-07T09:27:39;101299.56;;;19.80;35.45
2401;BME280;1211;43.200;27.914;2023-04-07T09:30:10;101294.28;;;19.74;35.17
2401;BME280;1211;43.200;27.914;2023-04-07T09:32:37;101287.41;;;19.68;35.40
2401;BME280;1211;43.200;27.914;2023-04-07T09:35:04;101288.66;;;20.01;36.19
2401;BME280;1211;43.200;27.914;2023-04-07T09:37:31;101296.41;;;17.78;36.96
2401;BME280;1211;43.200;27.914;2023-04-07T09:39:57;101291.31;;;18.38;38.03
2401;BME280;1211;43.200;27.914;2023-04-07T09:42:27;101290.03;;;20.40;35.21
2401;BME280;1211;43.200;27.914;2023-04-07T09:44:56;101293.44;;;22.54;33.10
2401;BME280;1211;43.200;27.914;2023-04-07T09:47:25;101294.44;;;23.36;32.25
2401;BME280;1211;43.200;27.914;2023-04-07T09:49:53;101295.66;;;23.60;31.42
2401;BME280;1211;43.200;27.914;2023-04-07T09:52:21;101302.91;;;23.64;31.61
2401;BME280;1211;43.200;27.914;2023-04-07T09:54:48;101301.81;;;19.97;33.53
2401;BME280;1211;43.200;27.914;2023-04-07T09:57:16;101305.41;;;18.26;36.28
2401;BME280;1211;43.200;27.914;2023-04-07T09:59:45;101294.06;;;20.43;34.86
2401;BME280;1211;43.200;27.914;2023-04-07T10:02:12;101300.00;;;23.04;31.96
2401;BME280;1211;43.200;27.914;2023-04-07T10:04:39;101309.84;;;19.49;34.09
2401;BME280;1211;43.200;27.914;2023-04-07T10:07:06;101303.94;;;17.30;37.61
2401;BME280;1211;43.200;27.914;2023-04-07T10:09:33;101309.31;;;17.23;38.57
2401;BME280;1211;43.200;27.914;2023-04-07T10:12:00;101301.25;;;18.55;38.57
2401;BME280;1211;43.200;27.914;2023-04-07T10:14:27;101306.56;;;17.70;38.33
2401;BME280;1211;43.200;27.914;2023-04-07T10:16:57;101316.03;;;18.74;36.79
2401;BME280;1211;43.200;27.914;2023-04-07T10:19:24;101313.09;;;19.32;37.68
2401;BME280;1211;43.200;27.914;2023-04-07T10:21:52;101298.78;;;21.09;35.76
2401;BME280;1211;43.200;27.914;2023-04-07T10:24:36;101307.00;;;22.34;34.12
2401;BME280;1211;43.200;27.914;2023-04-07T10:27:11;101310.50;;;21.59;34.01
2401;BME280;1211;43.200;27.914;2023-04-07T10:29:40;101307.78;;;21.73;33.86
2401;BME280;1211;43.200;27.914;2023-04-07T10:32:09;101315.97;;;21.45;34.56
2401;BME280;1211;43.200;27.914;2023-04-07T10:34:55;101306.41;;;20.72;35.09
2401;BME280;1211;43.200;27.914;2023-04-07T10:37:22;101306.78;;;20.37;35.37
2401;BME280;1211;43.200;27.914;2023-04-07T10:39:50;101312.69;;;20.05;35.60
2401;BME280;1211;43.200;27.914;2023-04-07T10:45:03;101305.41;;;20.27;36.07
2401;BME280;1211;43.200;27.914;2023-04-07T10:47:31;101303.94;;;20.67;35.18
2401;BME280;1211;43.200;27.914;2023-04-07T10:50:13;101298.47;;;20.77;35.65
2401;BME280;1211;43.200;27.914;2023-04-07T10:52:40;101299.81;;;21.31;34.89
2401;BME280;1211;43.200;27.914;2023-04-07T11:00:38;101302.44;;;20.76;35.67
2401;BME280;1211;43.200;27.914;2023-04-07T11:03:10;101305.53;;;20.68;35.27
2401;BME280;1211;43.200;27.914;2023-04-07T11:05:38;101299.69;;;21.17;35.40
2401;BME280;1211;43.200;27.914;2023-04-07T11:08:05;101304.94;;;20.85;35.45
2401;BME280;1211;43.200;27.914;2023-04-07T11:10:32;101304.69;;;21.37;35.32
2401;BME280;1211;43.200;27.914;2023-04-07T11:12:59;101305.72;;;21.63;34.44
2401;BME280;1211;43.200;27.914;2023-04-07T11:15:26;101309.06;;;21.83;33.95
2401;BME280;1211;43.200;27.914;2023-04-07T11:18:06;101303.66;;;22.11;33.69
2401;BME280;1211;43.200;27.914;2023-04-07T11:20:47;101307.44;;;22.47;33.26
2401;BME280;1211;43.200;27.914;2023-04-07T11:23:15;101307.34;;;22.26;33.27
2401;BME280;1211;43.200;27.914;2023-04-07T11:25:43;101303.88;;;22.64;33.42
2401;BME280;1211;43.200;27.914;2023-04-07T11:28:10;101307.16;;;22.77;32.79
2401;BME280;1211;43.200;27.914;2023-04-07T11:30:38;101304.00;;;21.48;33.50
2401;BME280;1211;43.200;27.914;2023-04-07T11:33:05;101298.75;;;21.06;34.75
2401;BME280;1211;43.200;27.914;2023-04-07T11:35:33;101293.75;;;21.25;35.41
2401;BME280;1211;43.200;27.914;2023-04-07T11:38:02;101296.63;;;19.99;36.13
2401;BME280;1211;43.200;27.914;2023-04-07T11:40:32;101294.78;;;19.80;36.61
2401;BME280;1211;43.200;27.914;2023-04-07T11:43:01;101306.63;;;17.90;39.04
2401;BME280;1211;43.200;27.914;2023-04-07T11:45:27;101290.59;;;19.70;37.53
2401;BME280;1211;43.200;27.914;2023-04-07T11:47:54;101295.19;;;19.82;37.45
2401;BME280;1211;43.200;27.914;2023-04-07T11:50:36;101292.38;;;21.09;35.95
2401;BME280;1211;43.200;27.914;2023-04-07T11:53:05;101294.03;;;21.57;34.96
2401;BME280;1211;43.200;27.914;2023-04-07T11:55:32;101294.84;;;21.58;34.22
2401;BME280;1211;43.200;27.914;2023-04-07T11:58:04;101296.63;;;21.32;35.82
2401;BME280;1211;43.200;27.914;2023-04-07T12:00:31;101293.16;;;22.80;33.74
2401;BME280;1211;43.200;27.914;2023-04-07T12:03:07;101306.44;;;21.53;34.20
2401;BME280;1211;43.200;27.914;2023-04-07T12:05:40;101305.28;;;22.19;33.94
2401;BME280;1211;43.200;27.914;2023-04-07T12:08:09;101297.19;;;22.03;34.23
2401;BME280;1211;43.200;27.914;2023-04-07T12:10:36;101306.66;;;21.85;33.96
2401;BME280;1211;43.200;27.914;2023-04-07T12:13:05;101305.34;;;22.30;33.86
2401;BME280;1211;43.200;27.914;2023-04-07T12:15:32;101296.78;;;22.95;33.32
2401;BME280;1211;43.200;27.914;2023-04-07T12:17:58;101279.94;;;22.98;33.28
2401;BME280;1211;43.200;27.914;2023-04-07T12:20:25;101288.44;;;23.59;32.71
2401;BME280;1211;43.200;27.914;2023-04-07T12:22:52;101287.25;;;23.49;32.61
2401;BME280;1211;43.200;27.914;2023-04-07T12:25:20;101291.59;;;23.08;33.34
2401;BME280;1211;43.200;27.914;2023-04-07T12:27:47;101293.31;;;21.67;34.82
2401;BME280;1211;43.200;27.914;2023-04-07T12:30:14;101287.97;;;19.81;37.82
2401;BME280;1211;43.200;27.914;2023-04-07T12:32:40;101284.28;;;19.73;38.38
2401;BME280;1211;43.200;27.914;2023-04-07T12:35:08;101287.19;;;17.93;38.71
2401;BME280;1211;43.200;27.914;2023-04-07T12:37:35;101290.94;;;17.66;40.66
2401;BME280;1211;43.200;27.914;2023-04-07T12:40:01;101284.97;;;16.89;46.01
2401;BME280;1211;43.200;27.914;2023-04-07T12:42:29;101283.50;;;16.24;49.90
2401;BME280;1211;43.200;27.914;2023-04-07T12:44:56;101292.84;;;16.31;50.53
2401;BME280;1211;43.200;27.914;2023-04-07T12:47:23;101295.78;;;16.63;46.98
2401;BME280;1211;43.200;27.914;2023-04-07T12:49:50;101308.03;;;17.05;45.77
2401;BME280;1211;43.200;27.914;2023-04-07T12:52:17;101301.06;;;17.11;44.93
2401;BME280;1211;43.200;27.914;2023-04-07T12:54:44;101300.22;;;16.79;44.53
2401;BME280;1211;43.200;27.914;2023-04-07T12:57:11;101309.38;;;16.80;43.45
2401;BME280;1211;43.200;27.914;2023-04-07T12:59:39;101309.97;;;16.33;43.90
2401;BME280;1211;43.200;27.914;2023-04-07T13:02:05;101312.91;;;16.65;43.73
2401;BME280;1211;43.200;27.914;2023-04-07T13:04:33;101321.16;;;16.09;44.66
2401;BME280;1211;43.200;27.914;2023-04-07T13:07:01;101312.66;;;15.53;44.51
2401;BME280;1211;43.200;27.914;2023-04-07T13:09:27;101313.69;;;15.73;49.63
2401;BME280;1211;43.200;27.914;2023-04-07T13:11:54;101316.31;;;16.06;54.55
2401;BME280;1211;43.200;27.914;2023-04-07T13:14:22;101314.47;;;15.98;56.50